sensor_id;sensor_type;location;lat;lon;timestamp;P1;durP1;ratioP1;P2;durP2;ratioP2
3817;SDS011;1924;48.078;11.516;2024-03-25T00:00:34;28.67;;;0.80;;
3817;SDS011;1924;48.078;11.516;2024-03-25T00:02:59;28.57;;;0.80;;
3817;SDS011;1924;48.078;11.516;2024-03-25T00:05:27;28.60;;;0.80;;
3817;SDS011;1924;48.078;11.516;2024-03-25T00:07:53;28.80;;;0.80;;
3817;SDS011;1924;48.078;11.516;2024-03-25T00:10:22;28.60;;;0.80;;
3817;SDS011;1924;48.078;11.516;2024-03-25T00:12:48;28.87;;;0.80;;
3817;SDS011;1924;48.078;11.516;2024-03-25T00:15:17;28.60;;;0.80;;
3817;SDS011;1924;48.078;11.516;2024-03-25T00:17:44;28.80;;;0.80;;
3817;SDS011;1924;48.078;11.516;2024-03-25T00:20:11;28.80;;;0.80;;
3817;SDS011;1924;48.078;11.516;2024-03-25T00:22:38;28.50;;;0.80;;
3817;SDS011;1924;48.078;11.516;2024-03-25T00:25:05;28.70;;;0.80;;
3817;SDS011;1924;48.078;11.516;2024-03-25T00:27:32;28.60;;;0.80;;
3817;SDS011;1924;48.078;11.516;2024-03-25T00:30:00;28.70;;;0.80;;
3817;SDS011;1924;48.078;11.516;2024-03-25T00:32:26;28.70;;;0.80;;
3817;SDS011;1924;48.078;11.516;2024-03-25T00:34:52;28.50;;;0.80;;
3817;SDS011;1924;48.078;11.516;2024-03-25T00:37:18;28.60;;;0.80;;
3817;SDS011;1924;48.078;11.516;2024-03-25T00:39:45;28.60;;;0.80;;
3817;SDS011;1924;48.078;11.516;2024-03-25T00:42:10;28.50;;;0.80;;
3817;SDS011;1924;48.078;11.516;2024-03-25T00:44:39;28.70;;;0.80;;
3817;SDS011;1924;48.078;11.516;2024-03-25T05:00:18;28.50;;;0.83;;
3817;SDS011;1924;48.078;11.516;2024-03-25T05:02:44;28.50;;;0.80;;
3817;SDS011;1924;48.078;11.516;2024-03-25T05:05:10;28.40;;;0.80;;
3817;SDS011;1924;48.078;11.516;2024-03-25T05:07:36;28.50;;;0.83;;
3817;SDS011;1924;48.078;11.516;2024-03-25T05:10:02;28.50;;;0.80;;
3817;SDS011;1924;48.078;11.516;2024-03-25T05:12:30;28.47;;;0.80;;
3817;SDS011;1924;48.078;11.516;2024-03-25T05:14:56;28.50;;;0.87;;
3817;SDS011;1924;48.078;11.516;2024-03-25T05:17:23;28.30;;;0.90;;
3817;SDS011;1924;48.078;11.516;2024-03-25T05:19:49;28.37;;;0.80;;
3817;SDS011;1924;48.078;11.516;2024-03-25T05:22:15;28.30;;;0.80;;
3817;SDS011;1924;48.078;11.516;2024-03-25T05:24:41;28.50;;;0.80;;
3817;SDS011;1924;48.078;11.516;2024-03-25T05:27:07;28.70;;;0.90;;
3817;SDS011;1924;48.078;11.516;2024-03-25T05:29:33;28.40;;;0.90;;
3817;SDS011;1924;48.078;11.516;2024-03-25T05:31:59;28.40;;;0.80;;
3817;SDS011;1924;48.078;11.516;2024-03-25T05:34:27;28.50;;;0.80;;
3817;SDS011;1924;48.078;11.516;2024-03-25T05:36:53;28.30;;;0.80;;
3817;SDS011;1924;48.078;11.516;2024-03-25T05:39:20;28.50;;;0.80;;
3817;SDS011;1924;48.078;11.516;2024-03-25T05:41:46;28.37;;;0.87;;
3817;SDS011;1924;48.078;11.516;2024-03-25T05:44:12;28.53;;;0.80;;
3817;SDS011;1924;48.078;11.516;2024-03-25T05:46:38;28.37;;;0.90;;
3817;SDS011;1924;48.078;11.516;2024-03-25T05:49:04;28.50;;;0.80;;
3817;SDS011;1924;48.078;11.516;2024-03-25T05:51:31;28.40;;;0.83;;
3817;SDS011;1924;48.078;11.516;2024-03-25T05:53:58;28.40;;;0.80;;
3817;SDS011;1924;48.078;11.516;2024-03-25T05:56:24;28.17;;;0.80;;
3817;SDS011;1924;48.078;11.516;2024-03-25T05:58:50;28.50;;;0.80;;
3817;SDS011;1924;48.078;11.516;2024-03-25T06:01:16;28.20;;;0.80;;
3817;SDS011;1924;48.078;11.516;2024-03-25T06:03:42;28.30;;;0.80;;
3817;SDS011;1924;48.078;11.516;2024-03-25T06:06:08;28.50;;;0.87;;
3817;SDS011;1924;48.078;11.516;2024-03-25T06:08:35;28.50;;;0.80;;
3817;SDS011;1924;48.078;11.516;2024-03-25T06:11:01;28.27;;;0.80;;
3817;SDS011;1924;48.078;11.516;2024-03-25T06:13:27;28.30;;;0.80;;
3817;SDS011;1924;48.078;11.516;2024-03-25T06:15:53;28.20;;;0.80;;
3817;SDS011;1924;48.078;11.516;2024-03-25T06:18:18;28.30;;;0.80;;
3817;SDS011;1924;48.078;11.516;2024-03-25T06:20:44;28.40;;;0.80;;
3817;SDS011;1924;48.078;11.516;2024-03-25T06:23:10;28.40;;;0.80;;
3817;SDS011;1924;48.078;11.516;2024-03-25T06:25:47;28.27;;;0.80;;
3817;SDS011;1924;48.078;11.516;2024-03-25T06:28:14;28.40;;;0.80;;
3817;SDS011;1924;48.078;11.516;2024-03-25T06:30:40;28.30;;;0.80;;
3817;SDS011;1924;48.078;11.516;2024-03-25T06:33:24;28.50;;;0.80;;
3817;SDS011;1924;48.078;11.516;2024-03-25T06:36:08;28.37;;;0.80;;
3817;SDS011;1924;48.078;11.516;2024-03-25T06:38:33;28.30;;;0.80;;
3817;SDS011;1924;48.078;11.516;2024-03-25T06:41:01;28.40;;;0.80;;
3817;SDS011;1924;48.078;11.516;2024-03-25T06:43:27;28.37;;;0.80;;
3817;SDS011;1924;48.078;11.516;2024-03-25T06:45:52;28.30;;;0.80;;
3817;SDS011;1924;48.078;11.516;2024-03-25T06:48:18;28.27;;;0.80;;
3817;SDS011;1924;48.078;11.516;2024-03-25T06:50:51;28.60;;;0.80;;
3817;SDS011;1924;48.078;11.516;2024-03-25T06:53:17;28.50;;;0.80;;
3817;SDS011;1924;48.078;11.516;2024-03-25T06:55:50;28.50;;;0.80;;
3817;SDS011;1924;48.078;11.516;2024-03-25T06:58:19;28.50;;;0.80;;
3817;SDS011;1924;48.078;11.516;2024-03-25T07:00:45;28.40;;;0.80;;
3817;SDS011;1924;48.078;11.516;2024-03-25T07:03:11;28.60;;;0.80;;
3817;SDS011;1924;48.078;11.516;2024-03-25T07:05:37;28.47;;;0.80;;
3817;SDS011;1924;48.078;11.516;2024-03-25T07:08:03;28.80;;;0.80;;
3817;SDS011;1924;48.078;11.516;2024-03-25T07:10:29;29.00;;;0.80;;
3817;SDS011;1924;48.078;11.516;2024-03-25T07:12:55;28.80;;;0.80;;
3817;SDS011;1924;48.078;11.516;2024-03-25T07:15:22;29.10;;;0.80;;
3817;SDS011;1924;48.078;11.516;2024-03-25T07:17:47;29.10;;;0.80;;
3817;SDS011;1924;48.078;11.516;2024-03-25T07:20:13;29.03;;;0.80;;
3817;SDS011;1924;48.078;11.516;2024-03-25T07:22:39;29.20;;;0.80;;
3817;SDS011;1924;48.078;11.516;2024-03-25T07:25:05;29.30;;;0.80;;
3817;SDS011;1924;48.078;11.516;2024-03-25T07:27:32;29.50;;;0.80;;
3817;SDS011;1924;48.078;11.516;2024-03-25T07:29:57;29.60;;;0.80;;
3817;SDS011;1924;48.078;11.516;2024-03-25T07:32:25;29.33;;;0.80;;
3817;SDS011;1924;48.078;11.516;2024-03-25T07:34:50;29.47;;;0.80;;
3817;SDS011;1924;48.078;11.516;2024-03-25T07:37:16;29.70;;;0.80;;
3817;SDS011;1924;48.078;11.516;2024-03-25T07:39:42;29.60;;;0.80;;
3817;SDS011;1924;48.078;11.516;2024-03-25T07:42:10;29.50;;;0.80;;
3817;SDS011;1924;48.078;11.516;2024-03-25T07:44:36;29.60;;;0.80;;
3817;SDS011;1924;48.078;11.516;2024-03-25T07:47:02;29.70;;;0.80;;
3817;SDS011;1924;48.078;11.516;2024-03-25T07:49:29;29.63;;;0.80;;
3817;SDS011;1924;48.078;11.516;2024-03-25T07:51:55;29.97;;;0.80;;
3817;SDS011;1924;48.078;11.516;2024-03-25T07:54:21;29.63;;;0.80;;
3817;SDS011;1924;48.078;11.516;2024-03-25T07:56:47;29.90;;;0.80;;
3817;SDS011;1924;48.078;11.516;2024-03-25T07:59:13;29.90;;;0.80;;
3817;SDS011;1924;48.078;11.516;2024-03-25T08:01:39;29.93;;;0.80;;
3817;SDS011;1924;48.078;11.516;2024-03-25T08:04:04;29.93;;;0.80;;
3817;SDS011;1924;48.078;11.516;2024-03-25T08:06:32;30.00;;;0.80;;
3817;SDS011;1924;48.078;11.516;2024-03-25T08:08:57;30.10;;;0.80;;
3817;SDS011;1924;48.078;11.516;2024-03-25T08:11:23;30.10;;;0.80;;
3817;SDS011;1924;48.078;11.516;2024-03-25T08:13:49;30.10;;;0.80;;
3817;SDS011;1924;48.078;11.516;2024-03-25T08:16:15;30.00;;;0.80;;
3817;SDS011;1924;48.078;11.516;2024-03-25T08:18:40;30.00;;;0.80;;
3817;SDS011;1924;48.078;11.516;2024-03-25T08:21:06;30.07;;;0.80;;
3817;SDS011;1924;48.078;11.516;2024-03-25T08:23:33;30.00;;;0.80;;
3817;SDS011;1924;48.078;11.516;2024-03-25T08:25:59;30.20;;;0.80;;
3817;SDS011;1924;48.078;11.516;2024-03-25T08:28:25;30.20;;;0.80;;
3817;SDS011;1924;48.078;11.516;2024-03-25T08:30:51;30.07;;;0.80;;
3817;SDS011;1924;48.078;11.516;2024-03-25T08:33:17;30.10;;;0.80;;
3817;SDS011;1924;48.078;11.516;2024-03-25T08:35:43;30.30;;;0.80;;
3817;SDS011;1924;48.078;11.516;2024-03-25T08:38:08;30.20;;;0.80;;
3817;SDS011;1924;48.078;11.516;2024-03-25T08:40:36;30.30;;;0.80;;
3817;SDS011;1924;48.078;11.516;2024-03-25T08:43:01;30.00;;;0.80;;
3817;SDS011;1924;48.078;11.516;2024-03-25T08:45:27;30.20;;;0.80;;
3817;SDS011;1924;48.078;11.516;2024-03-25T08:47:53;30.20;;;0.80;;
3817;SDS011;1924;48.078;11.516;2024-03-25T08:50:19;30.10;;;0.80;;
3817;SDS011;1924;48.078;11.516;2024-03-25T08:52:45;29.97;;;0.80;;
3817;SDS011;1924;48.078;11.516;2024-03-25T08:55:10;30.00;;;0.80;;
3817;SDS011;1924;48.078;11.516;2024-03-25T08:57:38;29.87;;;0.80;;
3817;SDS011;1924;48.078;11.516;2024-03-25T09:00:04;30.00;;;0.80;;
3817;SDS011;1924;48.078;11.516;2024-03-25T09:02:31;30.10;;;0.80;;
3817;SDS011;1924;48.078;11.516;2024-03-25T09:04:56;30.20;;;0.80;;
3817;SDS011;1924;48.078;11.516;2024-03-25T09:07:22;30.00;;;0.80;;
3817;SDS011;1924;48.078;11.516;2024-03-25T09:09:48;30.10;;;0.80;;
3817;SDS011;1924;48.078;11.516;2024-03-25T09:12:42;29.90;;;0.80;;
3817;SDS011;1924;48.078;11.516;2024-03-25T09:15:08;30.07;;;0.80;;
3817;SDS011;1924;48.078;11.516;2024-03-25T09:17:34;30.10;;;0.80;;
3817;SDS011;1924;48.078;11.516;2024-03-25T09:20:00;29.93;;;0.80;;
3817;SDS011;1924;48.078;11.516;2024-03-25T09:22:26;30.00;;;0.80;;
3817;SDS011;1924;48.078;11.516;2024-03-25T09:24:52;30.00;;;0.80;;
3817;SDS011;1924;48.078;11.516;2024-03-25T09:27:18;29.90;;;0.80;;
3817;SDS011;1924;48.078;11.516;2024-03-25T09:29:45;29.90;;;0.80;;
3817;SDS011;1924;48.078;11.516;2024-03-25T09:32:11;30.20;;;0.80;;
3817;SDS011;1924;48.078;11.516;2024-03-25T09:34:36;30.10;;;0.80;;
3817;SDS011;1924;48.078;11.516;2024-03-25T09:37:02;30.10;;;0.80;;
3817;SDS011;1924;48.078;11.516;2024-03-25T09:39:28;29.80;;;0.80;;
3817;SDS011;1924;48.078;11.516;2024-03-25T09:41:55;30.07;;;0.80;;
3817;SDS011;1924;48.078;11.516;2024-03-25T09:44:23;29.97;;;0.80;;
3817;SDS011;1924;48.078;11.516;2024-03-25T09:46:51;30.10;;;0.80;;
3817;SDS011;1924;48.078;11.516;2024-03-25T09:49:17;29.97;;;0.80;;
3817;SDS011;1924;48.078;11.516;2024-03-25T09:51:45;29.90;;;0.80;;
3817;SDS011;1924;48.078;11.516;2024-03-25T09:54:11;30.20;;;0.80;;
3817;SDS011;1924;48.078;11.516;2024-03-25T09:56:37;30.07;;;0.80;;
3817;SDS011;1924;48.078;11.516;2024-03-25T09:59:04;30.10;;;0.80;;
3817;SDS011;1924;48.078;11.516;2024-03-25T10:01:30;29.97;;;0.80;;
3817;SDS011;1924;48.078;11.516;2024-03-25T10:03:58;30.17;;;0.80;;
3817;SDS011;1924;48.078;11.516;2024-03-25T10:06:23;30.20;;;0.80;;
3817;SDS011;1924;48.078;11.516;2024-03-25T10:08:52;30.27;;;0.80;;
3817;SDS011;1924;48.078;11.516;2024-03-25T10:11:19;30.47;;;0.80;;
3817;SDS011;1924;48.078;11.516;2024-03-25T10:13:45;30.50;;;0.80;;
3817;SDS011;1924;48.078;11.516;2024-03-25T10:16:10;30.57;;;0.80;;
3817;SDS011;1924;48.078;11.516;2024-03-25T10:18:36;30.47;;;0.80;;
3817;SDS011;1924;48.078;11.516;2024-03-25T10:21:04;30.70;;;0.90;;
3817;SDS011;1924;48.078;11.516;2024-03-25T10:23:29;30.60;;;0.80;;
3817;SDS011;1924;48.078;11.516;2024-03-25T10:25:55;30.63;;;0.80;;
3817;SDS011;1924;48.078;11.516;2024-03-25T10:28:21;30.70;;;0.80;;
3817;SDS011;1924;48.078;11.516;2024-03-25T10:30:47;30.80;;;0.80;;
3817;SDS011;1924;48.078;11.516;2024-03-25T10:33:13;30.83;;;0.80;;
3817;SDS011;1924;48.078;11.516;2024-03-25T10:35:40;31.10;;;0.80;;
3817;SDS011;1924;48.078;11.516;2024-03-25T10:38:09;31.10;;;0.80;;
3817;SDS011;1924;48.078;11.516;2024-03-25T10:40:36;31.30;;;0.80;;
3817;SDS011;1924;48.078;11.516;2024-03-25T10:43:04;31.20;;;0.80;;
3817;SDS011;1924;48.078;11.516;2024-03-25T10:45:30;31.50;;;0.80;;
3817;SDS011;1924;48.078;11.516;2024-03-25T10:47:57;31.80;;;0.80;;
3817;SDS011;1924;48.078;11.516;2024-03-25T10:50:24;31.80;;;0.80;;
3817;SDS011;1924;48.078;11.516;2024-03-25T10:52:53;31.70;;;0.80;;
3817;SDS011;1924;48.078;11.516;2024-03-25T10:55:21;31.30;;;0.80;;
3817;SDS011;1924;48.078;11.516;2024-03-25T10:57:47;31.37;;;0.80;;
3817;SDS011;1924;48.078;11.516;2024-03-25T11:00:13;31.60;;;0.80;;
3817;SDS011;1924;48.078;11.516;2024-03-25T11:02:40;31.40;;;0.80;;
3817;SDS011;1924;48.078;11.516;2024-03-25T11:05:07;31.47;;;0.80;;
3817;SDS011;1924;48.078;11.516;2024-03-25T11:07:34;31.80;;;0.80;;
3817;SDS011;1924;48.078;11.516;2024-03-25T11:10:03;31.37;;;0.80;;
3817;SDS011;1924;48.078;11.516;2024-03-25T11:12:40;31.70;;;0.80;;
3817;SDS011;1924;48.078;11.516;2024-03-25T11:15:06;31.37;;;0.80;;
3817;SDS011;1924;48.078;11.516;2024-03-25T11:17:33;31.67;;;0.80;;
3817;SDS011;1924;48.078;11.516;2024-03-25T11:20:06;31.53;;;0.80;;
3817;SDS011;1924;48.078;11.516;2024-03-25T11:22:33;31.87;;;0.80;;
3817;SDS011;1924;48.078;11.516;2024-03-25T11:25:04;31.47;;;0.80;;
3817;SDS011;1924;48.078;11.516;2024-03-25T11:27:32;31.70;;;0.80;;
3817;SDS011;1924;48.078;11.516;2024-03-25T11:30:00;31.80;;;0.80;;
3817;SDS011;1924;48.078;11.516;2024-03-25T11:32:26;31.60;;;0.80;;
3817;SDS011;1924;48.078;11.516;2024-03-25T11:34:52;31.73;;;0.80;;
3817;SDS011;1924;48.078;11.516;2024-03-25T11:37:18;31.73;;;0.80;;
3817;SDS011;1924;48.078;11.516;2024-03-25T11:39:44;31.70;;;0.80;;
3817;SDS011;1924;48.078;11.516;2024-03-25T11:42:10;31.70;;;0.80;;
3817;SDS011;1924;48.078;11.516;2024-03-25T11:44:38;31.90;;;0.80;;
3817;SDS011;1924;48.078;11.516;2024-03-25T11:47:05;32.07;;;0.80;;
3817;SDS011;1924;48.078;11.516;2024-03-25T11:49:32;32.50;;;0.80;;
3817;SDS011;1924;48.078;11.516;2024-03-25T11:51:58;32.77;;;0.80;;
3817;SDS011;1924;48.078;11.516;2024-03-25T11:54:26;32.50;;;0.80;;
3817;SDS011;1924;48.078;11.516;2024-03-25T11:56:53;32.70;;;0.80;;
3817;SDS011;1924;48.078;11.516;2024-03-25T11:59:19;32.67;;;0.80;;
3817;SDS011;1924;48.078;11.516;2024-03-25T12:01:45;32.80;;;0.80;;
3817;SDS011;1924;48.078;11.516;2024-03-25T12:04:16;32.80;;;0.80;;
3817;SDS011;1924;48.078;11.516;2024-03-25T12:06:43;32.67;;;0.80;;
3817;SDS011;1924;48.078;11.516;2024-03-25T12:09:09;32.50;;;0.80;;
3817;SDS011;1924;48.078;11.516;2024-03-25T12:11:54;32.20;;;0.80;;
3817;SDS011;1924;48.078;11.516;2024-03-25T12:14:20;32.10;;;0.80;;
3817;SDS011;1924;48.078;11.516;2024-03-25T12:16:46;31.97;;;0.80;;
3817;SDS011;1924;48.078;11.516;2024-03-25T12:19:14;32.13;;;0.80;;
3817;SDS011;1924;48.078;11.516;2024-03-25T12:21:40;32.13;;;0.80;;
3817;SDS011;1924;48.078;11.516;2024-03-25T12:24:06;32.20;;;0.80;;
3817;SDS011;1924;48.078;11.516;2024-03-25T12:26:33;32.27;;;0.80;;
3817;SDS011;1924;48.078;11.516;2024-03-25T12:28:59;32.10;;;0.80;;
3817;SDS011;1924;48.078;11.516;2024-03-25T12:31:25;32.30;;;0.80;;
3817;SDS011;1924;48.078;11.516;2024-03-25T12:33:51;32.30;;;0.80;;
3817;SDS011;1924;48.078;11.516;2024-03-25T12:36:18;32.17;;;0.80;;
3817;SDS011;1924;48.078;11.516;2024-03-25T12:38:53;32.07;;;0.80;;
3817;SDS011;1924;48.078;11.516;2024-03-25T12:41:21;32.30;;;0.80;;
3817;SDS011;1924;48.078;11.516;2024-03-25T12:43:49;32.20;;;0.80;;
3817;SDS011;1924;48.078;11.516;2024-03-25T12:46:15;32.30;;;0.80;;
3817;SDS011;1924;48.078;11.516;2024-03-25T12:48:41;32.20;;;0.80;;
3817;SDS011;1924;48.078;11.516;2024-03-25T12:51:11;32.50;;;0.80;;
3817;SDS011;1924;48.078;11.516;2024-03-25T12:53:39;32.40;;;0.80;;
3817;SDS011;1924;48.078;11.516;2024-03-25T12:56:05;32.37;;;0.80;;
3817;SDS011;1924;48.078;11.516;2024-03-25T12:58:31;32.30;;;0.80;;
3817;SDS011;1924;48.078;11.516;2024-03-25T13:00:57;32.17;;;0.80;;
3817;SDS011;1924;48.078;11.516;2024-03-25T13:03:23;32.40;;;0.80;;
3817;SDS011;1924;48.078;11.516;2024-03-25T13:05:49;32.40;;;0.80;;
3817;SDS011;1924;48.078;11.516;2024-03-25T13:08:15;32.17;;;0.80;;
3817;SDS011;1924;48.078;11.516;2024-03-25T13:10:42;32.30;;;0.80;;
3817;SDS011;1924;48.078;11.516;2024-03-25T13:13:08;32.17;;;0.80;;
3817;SDS011;1924;48.078;11.516;2024-03-25T13:15:34;32.30;;;0.80;;
3817;SDS011;1924;48.078;11.516;2024-03-25T13:18:00;32.30;;;0.80;;
3817;SDS011;1924;48.078;11.516;2024-03-25T13:20:26;32.17;;;0.80;;
3817;SDS011;1924;48.078;11.516;2024-03-25T13:22:53;32.10;;;0.80;;
3817;SDS011;1924;48.078;11.516;2024-03-25T13:25:20;32.07;;;0.80;;
3817;SDS011;1924;48.078;11.516;2024-03-25T13:27:48;32.30;;;0.80;;
3817;SDS011;1924;48.078;11.516;2024-03-25T13:30:13;31.97;;;0.80;;
3817;SDS011;1924;48.078;11.516;2024-03-25T13:32:39;32.00;;;0.80;;
3817;SDS011;1924;48.078;11.516;2024-03-25T13:35:05;32.10;;;0.80;;
3817;SDS011;1924;48.078;11.516;2024-03-25T13:37:31;32.30;;;0.80;;
3817;SDS011;1924;48.078;11.516;2024-03-25T13:39:57;31.90;;;0.80;;
3817;SDS011;1924;48.078;11.516;2024-03-25T13:42:23;31.90;;;0.80;;
3817;SDS011;1924;48.078;11.516;2024-03-25T13:44:50;32.00;;;0.80;;
3817;SDS011;1924;48.078;11.516;2024-03-25T13:47:16;31.93;;;0.80;;
3817;SDS011;1924;48.078;11.516;2024-03-25T13:49:42;31.87;;;0.80;;
3817;SDS011;1924;48.078;11.516;2024-03-25T13:52:08;32.17;;;0.80;;
3817;SDS011;1924;48.078;11.516;2024-03-25T13:54:33;32.03;;;0.80;;
3817;SDS011;1924;48.078;11.516;2024-03-25T13:56:59;32.07;;;0.80;;
3817;SDS011;1924;48.078;11.516;2024-03-25T13:59:25;31.97;;;0.80;;
3817;SDS011;1924;48.078;11.516;2024-03-25T14:01:52;32.07;;;0.80;;
3817;SDS011;1924;48.078;11.516;2024-03-25T14:04:18;32.07;;;0.80;;
3817;SDS011;1924;48.078;11.516;2024-03-25T14:06:44;31.87;;;0.80;;
3817;SDS011;1924;48.078;11.516;2024-03-25T14:09:10;32.10;;;0.80;;
3817;SDS011;1924;48.078;11.516;2024-03-25T14:11:36;32.00;;;0.80;;
3817;SDS011;1924;48.078;11.516;2024-03-25T14:14:02;31.97;;;0.80;;
3817;SDS011;1924;48.078;11.516;2024-03-25T14:16:28;31.93;;;0.80;;
3817;SDS011;1924;48.078;11.516;2024-03-25T14:18:55;31.80;;;0.80;;
3817;SDS011;1924;48.078;11.516;2024-03-25T14:21:21;31.90;;;0.80;;
3817;SDS011;1924;48.078;11.516;2024-03-25T14:23:46;31.80;;;0.80;;
3817;SDS011;1924;48.078;11.516;2024-03-25T14:26:12;31.80;;;0.80;;
3817;SDS011;1924;48.078;11.516;2024-03-25T14:28:40;31.87;;;0.80;;
3817;SDS011;1924;48.078;11.516;2024-03-25T14:31:05;31.47;;;0.80;;
3817;SDS011;1924;48.078;11.516;2024-03-25T14:33:31;31.97;;;0.80;;
3817;SDS011;1924;48.078;11.516;2024-03-25T14:35:58;31.90;;;0.80;;
3817;SDS011;1924;48.078;11.516;2024-03-25T14:38:24;31.73;;;0.80;;
3817;SDS011;1924;48.078;11.516;2024-03-25T14:40:50;31.90;;;0.80;;
3817;SDS011;1924;48.078;11.516;2024-03-25T14:43:16;31.87;;;0.80;;
3817;SDS011;1924;48.078;11.516;2024-03-25T14:45:42;31.67;;;0.80;;
3817;SDS011;1924;48.078;11.516;2024-03-25T14:48:08;31.70;;;0.80;;
3817;SDS011;1924;48.078;11.516;2024-03-25T14:50:33;31.47;;;0.80;;
3817;SDS011;1924;48.078;11.516;2024-03-25T14:53:01;31.70;;;0.80;;
3817;SDS011;1924;48.078;11.516;2024-03-25T14:55:26;31.60;;;0.80;;
3817;SDS011;1924;48.078;11.516;2024-03-25T14:57:52;31.60;;;0.80;;
3817;SDS011;1924;48.078;11.516;2024-03-25T15:00:18;31.50;;;0.80;;
3817;SDS011;1924;48.078;11.516;2024-03-25T15:02:44;31.50;;;0.90;;
3817;SDS011;1924;48.078;11.516;2024-03-25T15:05:10;31.50;;;0.80;;
3817;SDS011;1924;48.078;11.516;2024-03-25T15:07:36;32.00;;;0.80;;
3817;SDS011;1924;48.078;11.516;2024-03-25T15:10:03;31.40;;;0.80;;
3817;SDS011;1924;48.078;11.516;2024-03-25T15:12:29;31.70;;;0.90;;
3817;SDS011;1924;48.078;11.516;2024-03-25T15:14:55;31.10;;;0.80;;
3817;SDS011;1924;48.078;11.516;2024-03-25T15:17:21;31.23;;;0.80;;
3817;SDS011;1924;48.078;11.516;2024-03-25T15:19:47;31.20;;;0.80;;
3817;SDS011;1924;48.078;11.516;2024-03-25T15:22:13;31.03;;;0.80;;
3817;SDS011;1924;48.078;11.516;2024-03-25T15:24:39;30.97;;;0.80;;
3817;SDS011;1924;48.078;11.516;2024-03-25T15:27:06;31.00;;;0.80;;
3817;SDS011;1924;48.078;11.516;2024-03-25T15:29:32;30.87;;;0.80;;
3817;SDS011;1924;48.078;11.516;2024-03-25T15:31:58;30.87;;;0.80;;
3817;SDS011;1924;48.078;11.516;2024-03-25T15:34:24;31.00;;;0.80;;
3817;SDS011;1924;48.078;11.516;2024-03-25T15:36:49;31.10;;;0.80;;
3817;SDS011;1924;48.078;11.516;2024-03-25T15:39:15;31.00;;;0.80;;
3817;SDS011;1924;48.078;11.516;2024-03-25T15:41:41;31.03;;;0.80;;
3817;SDS011;1924;48.078;11.516;2024-03-25T15:44:08;30.90;;;0.80;;
3817;SDS011;1924;48.078;11.516;2024-03-25T15:46:34;31.10;;;0.80;;
3817;SDS011;1924;48.078;11.516;2024-03-25T15:49:00;30.90;;;0.80;;
3817;SDS011;1924;48.078;11.516;2024-03-25T15:51:25;30.90;;;0.80;;
3817;SDS011;1924;48.078;11.516;2024-03-25T15:53:51;30.90;;;0.80;;
3817;SDS011;1924;48.078;11.516;2024-03-25T15:56:17;30.80;;;0.80;;
3817;SDS011;1924;48.078;11.516;2024-03-25T15:58:43;31.00;;;0.80;;
3817;SDS011;1924;48.078;11.516;2024-03-25T16:01:10;30.80;;;0.80;;
3817;SDS011;1924;48.078;11.516;2024-03-25T16:03:36;30.90;;;0.80;;
3817;SDS011;1924;48.078;11.516;2024-03-25T16:06:02;30.80;;;0.80;;
3817;SDS011;1924;48.078;11.516;2024-03-25T16:08:28;30.80;;;0.80;;
3817;SDS011;1924;48.078;11.516;2024-03-25T16:10:54;30.77;;;0.80;;
3817;SDS011;1924;48.078;11.516;2024-03-25T16:13:20;31.00;;;0.80;;
3817;SDS011;1924;48.078;11.516;2024-03-25T16:15:46;30.80;;;0.80;;
3817;SDS011;1924;48.078;11.516;2024-03-25T16:18:27;30.70;;;0.80;;
3817;SDS011;1924;48.078;11.516;2024-03-25T16:20:53;31.17;;;0.80;;
3817;SDS011;1924;48.078;11.516;2024-03-25T16:23:19;30.73;;;0.80;;
3817;SDS011;1924;48.078;11.516;2024-03-25T16:25:45;30.80;;;0.80;;
3817;SDS011;1924;48.078;11.516;2024-03-25T16:28:10;30.70;;;0.80;;
3817;SDS011;1924;48.078;11.516;2024-03-25T16:30:36;30.60;;;0.80;;
3817;SDS011;1924;48.078;11.516;2024-03-25T16:33:02;30.80;;;0.80;;
3817;SDS011;1924;48.078;11.516;2024-03-25T16:35:30;30.37;;;0.80;;
3817;SDS011;1924;48.078;11.516;2024-03-25T16:37:56;30.50;;;0.80;;
3817;SDS011;1924;48.078;11.516;2024-03-25T16:40:21;30.63;;;0.80;;
3817;SDS011;1924;48.078;11.516;2024-03-25T16:42:48;30.80;;;0.80;;
3817;SDS011;1924;48.078;11.516;2024-03-25T16:45:14;30.50;;;0.80;;
3817;SDS011;1924;48.078;11.516;2024-03-25T16:47:40;30.60;;;0.80;;
3817;SDS011;1924;48.078;11.516;2024-03-25T16:50:06;30.50;;;0.80;;
3817;SDS011;1924;48.078;11.516;2024-03-25T16:52:34;30.37;;;0.80;;
3817;SDS011;1924;48.078;11.516;2024-03-25T16:55:00;30.47;;;0.80;;
3817;SDS011;1924;48.078;11.516;2024-03-25T16:57:25;30.47;;;0.80;;
3817;SDS011;1924;48.078;11.516;2024-03-25T16:59:51;30.30;;;0.80;;
3817;SDS011;1924;48.078;11.516;2024-03-25T17:02:17;30.40;;;0.80;;
3817;SDS011;1924;48.078;11.516;2024-03-25T17:04:43;30.60;;;0.80;;
3817;SDS011;1924;48.078;11.516;2024-03-25T17:07:09;30.40;;;0.80;;
3817;SDS011;1924;48.078;11.516;2024-03-25T17:09:36;30.47;;;0.80;;
3817;SDS011;1924;48.078;11.516;2024-03-25T17:12:05;30.40;;;0.80;;
3817;SDS011;1924;48.078;11.516;2024-03-25T17:14:31;30.30;;;0.80;;
3817;SDS011;1924;48.078;11.516;2024-03-25T17:16:57;30.30;;;0.80;;
3817;SDS011;1924;48.078;11.516;2024-03-25T17:19:25;30.40;;;0.80;;
3817;SDS011;1924;48.078;11.516;2024-03-25T17:21:51;30.30;;;0.80;;
3817;SDS011;1924;48.078;11.516;2024-03-25T17:24:19;30.10;;;0.80;;
3817;SDS011;1924;48.078;11.516;2024-03-25T17:26:46;30.20;;;0.80;;
3817;SDS011;1924;48.078;11.516;2024-03-25T17:29:12;30.20;;;0.80;;
3817;SDS011;1924;48.078;11.516;2024-03-25T17:31:38;30.30;;;0.80;;
3817;SDS011;1924;48.078;11.516;2024-03-25T17:34:04;30.07;;;0.80;;
3817;SDS011;1924;48.078;11.516;2024-03-25T17:36:30;30.17;;;0.80;;
3817;SDS011;1924;48.078;11.516;2024-03-25T17:38:55;30.20;;;0.80;;
3817;SDS011;1924;48.078;11.516;2024-03-25T17:41:21;29.90;;;0.80;;
3817;SDS011;1924;48.078;11.516;2024-03-25T17:43:49;30.00;;;0.80;;
3817;SDS011;1924;48.078;11.516;2024-03-25T17:46:17;30.20;;;0.80;;
3817;SDS011;1924;48.078;11.516;2024-03-25T17:48:43;30.20;;;0.80;;
3817;SDS011;1924;48.078;11.516;2024-03-25T17:51:09;30.10;;;0.80;;
3817;SDS011;1924;48.078;11.516;2024-03-25T17:53:37;30.07;;;0.80;;
3817;SDS011;1924;48.078;11.516;2024-03-25T17:56:03;30.20;;;0.80;;
3817;SDS011;1924;48.078;11.516;2024-03-25T17:58:29;30.00;;;0.80;;
3817;SDS011;1924;48.078;11.516;2024-03-25T18:00:56;29.97;;;0.90;;
3817;SDS011;1924;48.078;11.516;2024-03-25T18:03:22;29.97;;;0.80;;
3817;SDS011;1924;48.078;11.516;2024-03-25T18:05:48;30.10;;;0.80;;
3817;SDS011;1924;48.078;11.516;2024-03-25T18:08:14;30.00;;;0.80;;
3817;SDS011;1924;48.078;11.516;2024-03-25T18:10:40;30.00;;;0.80;;
3817;SDS011;1924;48.078;11.516;2024-03-25T18:13:07;30.07;;;0.80;;
3817;SDS011;1924;48.078;11.516;2024-03-25T18:15:33;30.10;;;0.87;;
3817;SDS011;1924;48.078;11.516;2024-03-25T18:18:00;30.07;;;0.80;;
3817;SDS011;1924;48.078;11.516;2024-03-25T18:20:26;29.90;;;0.80;;
3817;SDS011;1924;48.078;11.516;2024-03-25T18:22:52;29.77;;;0.80;;
3817;SDS011;1924;48.078;11.516;2024-03-25T18:25:17;30.00;;;0.80;;
3817;SDS011;1924;48.078;11.516;2024-03-25T18:27:43;29.70;;;0.80;;
3817;SDS011;1924;48.078;11.516;2024-03-25T18:30:09;30.00;;;0.80;;
3817;SDS011;1924;48.078;11.516;2024-03-25T18:32:36;29.73;;;0.80;;
3817;SDS011;1924;48.078;11.516;2024-03-25T18:35:04;29.90;;;0.80;;
3817;SDS011;1924;48.078;11.516;2024-03-25T18:37:30;29.80;;;0.80;;
3817;SDS011;1924;48.078;11.516;2024-03-25T18:39:56;29.87;;;0.80;;
3817;SDS011;1924;48.078;11.516;2024-03-25T18:42:22;29.70;;;0.80;;
3817;SDS011;1924;48.078;11.516;2024-03-25T18:44:48;29.77;;;0.80;;
3817;SDS011;1924;48.078;11.516;2024-03-25T18:47:14;29.90;;;0.80;;
3817;SDS011;1924;48.078;11.516;2024-03-25T18:49:40;30.00;;;0.80;;
3817;SDS011;1924;48.078;11.516;2024-03-25T18:52:10;29.90;;;0.80;;
3817;SDS011;1924;48.078;11.516;2024-03-25T18:54:36;29.77;;;0.80;;
3817;SDS011;1924;48.078;11.516;2024-03-25T18:57:01;29.77;;;0.80;;